sensor_id;sensor_type;location;lat;lon;timestamp;temperature;humidity
3356;DHT22;1691;52.486;13.374;2022-12-07T00:01:41;4.00;98.70
3356;DHT22;1691;52.486;13.374;2022-12-07T00:04:12;3.90;98.70
3356;DHT22;1691;52.486;13.374;2022-12-07T00:06:45;3.90;98.70
3356;DHT22;1691;52.486;13.374;2022-12-07T00:09:15;3.90;98.70
3356;DHT22;1691;52.486;13.374;2022-12-07T00:11:44;3.90;98.70
3356;DHT22;1691;52.486;13.374;2022-12-07T00:14:15;3.80;98.70
3356;DHT22;1691;52.486;13.374;2022-12-07T00:16:43;3.80;98.70
3356;DHT22;1691;52.486;13.374;2022-12-07T00:19:13;3.80;98.70
3356;DHT22;1691;52.486;13.374;2022-12-07T00:21:41;3.80;98.70
3356;DHT22;1691;52.486;13.374;2022-12-07T00:24:08;3.80;98.70
3356;DHT22;1691;52.486;13.374;2022-12-07T00:26:38;3.80;98.70
3356;DHT22;1691;52.486;13.374;2022-12-07T00:29:09;3.80;98.70
3356;DHT22;1691;52.486;13.374;2022-12-07T00:31:39;3.70;98.70
3356;DHT22;1691;52.486;13.374;2022-12-07T00:34:11;3.70;98.70
3356;DHT22;1691;52.486;13.374;2022-12-07T00:36:39;3.70;98.70
3356;DHT22;1691;52.486;13.374;2022-12-07T00:39:06;3.70;98.70
3356;DHT22;1691;52.486;13.374;2022-12-07T00:41:34;3.60;98.70
3356;DHT22;1691;52.486;13.374;2022-12-07T00:44:01;3.50;98.70
3356;DHT22;1691;52.486;13.374;2022-12-07T00:46:28;3.40;98.70
3356;DHT22;1691;52.486;13.374;2022-12-07T00:48:56;3.30;98.70
3356;DHT22;1691;52.486;13.374;2022-12-07T00:51:25;3.20;98.70
3356;DHT22;1691;52.486;13.374;2022-12-07T00:53:53;3.00;98.70
3356;DHT22;1691;52.486;13.374;2022-12-07T00:56:25;3.00;98.70
3356;DHT22;1691;52.486;13.374;2022-12-07T00:58:58;2.90;98.70
3356;DHT22;1691;52.486;13.374;2022-12-07T01:01:30;2.90;98.70
3356;DHT22;1691;52.486;13.374;2022-12-07T01:03:58;2.80;98.70
3356;DHT22;1691;52.486;13.374;2022-12-07T01:06:28;2.80;98.70
3356;DHT22;1691;52.486;13.374;2022-12-07T01:08:56;2.90;98.70
3356;DHT22;1691;52.486;13.374;2022-12-07T01:11:26;2.90;98.70
3356;DHT22;1691;52.486;13.374;2022-12-07T01:13:56;2.90;98.70
3356;DHT22;1691;52.486;13.374;2022-12-07T01:16:26;2.90;98.70
3356;DHT22;1691;52.486;13.374;2022-12-07T01:18:56;3.00;98.70
3356;DHT22;1691;52.486;13.374;2022-12-07T01:21:25;3.00;98.70
3356;DHT22;1691;52.486;13.374;2022-12-07T01:23:54;3.00;98.70
3356;DHT22;1691;52.486;13.374;2022-12-07T01:26:23;3.10;98.70
3356;DHT22;1691;52.486;13.374;2022-12-07T01:28:51;3.10;98.70
3356;DHT22;1691;52.486;13.374;2022-12-07T01:31:23;3.20;98.70
3356;DHT22;1691;52.486;13.374;2022-12-07T01:33:55;3.20;98.70
3356;DHT22;1691;52.486;13.374;2022-12-07T01:36:27;3.20;98.70
3356;DHT22;1691;52.486;13.374;2022-12-07T01:38:59;3.20;98.70
3356;DHT22;1691;52.486;13.374;2022-12-07T01:41:36;3.30;98.70
3356;DHT22;1691;52.486;13.374;2022-12-07T01:44:27;3.30;98.70
3356;DHT22;1691;52.486;13.374;2022-12-07T01:47:04;3.30;98.70
3356;DHT22;1691;52.486;13.374;2022-12-07T01:49:38;3.30;98.70
3356;DHT22;1691;52.486;13.374;2022-12-07T01:52:26;3.30;98.70
3356;DHT22;1691;52.486;13.374;2022-12-07T01:55:02;3.30;98.70
3356;DHT22;1691;52.486;13.374;2022-12-07T01:57:33;3.30;98.70
3356;DHT22;1691;52.486;13.374;2022-12-07T02:00:03;3.40;98.70
3356;DHT22;1691;52.486;13.374;2022-12-07T02:02:35;3.40;98.70
3356;DHT22;1691;52.486;13.374;2022-12-07T02:05:05;3.40;98.70
3356;DHT22;1691;52.486;13.374;2022-12-07T02:07:36;3.40;98.70
3356;DHT22;1691;52.486;13.374;2022-12-07T02:10:20;3.40;98.70
3356;DHT22;1691;52.486;13.374;2022-12-07T02:13:21;3.40;98.70
3356;DHT22;1691;52.486;13.374;2022-12-07T02:21:12;3.40;98.70
3356;DHT22;1691;52.486;13.374;2022-12-07T02:30:35;3.30;98.70
3356;DHT22;1691;52.486;13.374;2022-12-07T02:33:18;3.20;98.70
3356;DHT22;1691;52.486;13.374;2022-12-07T02:36:04;3.20;98.70
3356;DHT22;1691;52.486;13.374;2022-12-07T02:38:55;3.10;98.70
3356;DHT22;1691;52.486;13.374;2022-12-07T02:44:03;3.10;98.70
3356;DHT22;1691;52.486;13.374;2022-12-07T02:46:43;3.00;98.70
3356;DHT22;1691;52.486;13.374;2022-12-07T02:49:13;3.00;98.70
3356;DHT22;1691;52.486;13.374;2022-12-07T02:51:46;3.00;98.70
3356;DHT22;1691;52.486;13.374;2022-12-07T02:54:15;2.90;98.70
3356;DHT22;1691;52.486;13.374;2022-12-07T03:02:26;2.90;98.70
3356;DHT22;1691;52.486;13.374;2022-12-07T03:11:03;2.90;98.70
3356;DHT22;1691;52.486;13.374;2022-12-07T03:13:47;2.90;98.70
3356;DHT22;1691;52.486;13.374;2022-12-07T03:16:30;2.90;98.70
3356;DHT22;1691;52.486;13.374;2022-12-07T03:19:07;2.90;98.70
3356;DHT22;1691;52.486;13.374;2022-12-07T03:21:50;2.90;98.70
3356;DHT22;1691;52.486;13.374;2022-12-07T03:24:24;2.90;98.70
3356;DHT22;1691;52.486;13.374;2022-12-07T03:27:03;3.00;98.70
3356;DHT22;1691;52.486;13.374;2022-12-07T03:29:42;3.00;98.70
3356;DHT22;1691;52.486;13.374;2022-12-07T03:37:44;3.00;98.70
3356;DHT22;1691;52.486;13.374;2022-12-07T03:40:26;3.00;98.70
3356;DHT22;1691;52.486;13.374;2022-12-07T03:42:57;3.00;98.70
3356;DHT22;1691;52.486;13.374;2022-12-07T03:45:39;3.00;98.70
3356;DHT22;1691;52.486;13.374;2022-12-07T03:48:28;3.00;98.70
3356;DHT22;1691;52.486;13.374;2022-12-07T03:51:10;3.10;98.70
3356;DHT22;1691;52.486;13.374;2022-12-07T03:53:44;3.10;98.70
3356;DHT22;1691;52.486;13.374;2022-12-07T03:56:14;3.10;98.70
3356;DHT22;1691;52.486;13.374;2022-12-07T03:58:42;3.10;98.70
3356;DHT22;1691;52.486;13.374;2022-12-07T04:01:09;3.10;98.70
3356;DHT22;1691;52.486;13.374;2022-12-07T04:03:37;3.10;98.70
3356;DHT22;1691;52.486;13.374;2022-12-07T04:06:04;3.10;98.70
3356;DHT22;1691;52.486;13.374;2022-12-07T04:08:31;3.10;98.70
3356;DHT22;1691;52.486;13.374;2022-12-07T04:10:58;3.00;98.70
3356;DHT22;1691;52.486;13.374;2022-12-07T04:13:25;3.00;98.70
3356;DHT22;1691;52.486;13.374;2022-12-07T04:15:52;3.00;98.70
3356;DHT22;1691;52.486;13.374;2022-12-07T04:18:19;2.90;98.70
3356;DHT22;1691;52.486;13.374;2022-12-07T04:20:46;2.90;98.70
3356;DHT22;1691;52.486;13.374;2022-12-07T04:23:14;2.90;98.70
3356;DHT22;1691;52.486;13.374;2022-12-07T04:25:41;2.80;98.70
3356;DHT22;1691;52.486;13.374;2022-12-07T04:28:08;2.80;98.70
3356;DHT22;1691;52.486;13.374;2022-12-07T04:30:35;2.80;98.70
3356;DHT22;1691;52.486;13.374;2022-12-07T04:33:02;2.80;98.70
3356;DHT22;1691;52.486;13.374;2022-12-07T04:35:29;2.80;98.70
3356;DHT22;1691;52.486;13.374;2022-12-07T04:37:56;2.80;98.70
3356;DHT22;1691;52.486;13.374;2022-12-07T04:40:23;2.90;98.70
3356;DHT22;1691;52.486;13.374;2022-12-07T04:42:50;2.90;98.70
3356;DHT22;1691;52.486;13.374;2022-12-07T04:45:17;2.90;98.70
3356;DHT22;1691;52.486;13.374;2022-12-07T04:47:44;2.90;98.70
3356;DHT22;1691;52.486;13.374;2022-12-07T04:50:11;2.90;98.70
3356;DHT22;1691;52.486;13.374;2022-12-07T04:52:38;2.90;98.70
3356;DHT22;1691;52.486;13.374;2022-12-07T04:55:05;2.90;98.70
3356;DHT22;1691;52.486;13.374;2022-12-07T04:57:32;3.00;98.70
3356;DHT22;1691;52.486;13.374;2022-12-07T04:59:59;3.00;98.70
3356;DHT22;1691;52.486;13.374;2022-12-07T05:02:28;3.00;98.70
3356;DHT22;1691;52.486;13.374;2022-12-07T05:04:55;3.00;98.70
3356;DHT22;1691;52.486;13.374;2022-12-07T05:07:22;3.00;98.70
3356;DHT22;1691;52.486;13.374;2022-12-07T05:09:49;3.00;98.70
3356;DHT22;1691;52.486;13.374;2022-12-07T05:12:16;3.00;98.70
3356;DHT22;1691;52.486;13.374;2022-12-07T05:14:43;3.00;98.70
3356;DHT22;1691;52.486;13.374;2022-12-07T05:17:10;3.10;98.70
3356;DHT22;1691;52.486;13.374;2022-12-07T05:19:38;3.10;98.70
3356;DHT22;1691;52.486;13.374;2022-12-07T05:22:05;3.10;98.70
3356;DHT22;1691;52.486;13.374;2022-12-07T05:24:32;3.10;98.70
3356;DHT22;1691;52.486;13.374;2022-12-07T05:26:59;3.20;98.70
3356;DHT22;1691;52.486;13.374;2022-12-07T05:29:26;3.20;98.70
3356;DHT22;1691;52.486;13.374;2022-12-07T05:31:53;3.20;98.70
3356;DHT22;1691;52.486;13.374;2022-12-07T05:34:20;3.20;98.70
3356;DHT22;1691;52.486;13.374;2022-12-07T05:36:47;3.20;98.70
3356;DHT22;1691;52.486;13.374;2022-12-07T05:39:14;3.30;98.70
3356;DHT22;1691;52.486;13.374;2022-12-07T05:41:41;3.30;98.70
3356;DHT22;1691;52.486;13.374;2022-12-07T05:44:27;3.30;98.70
3356;DHT22;1691;52.486;13.374;2022-12-07T05:46:54;3.40;98.70
3356;DHT22;1691;52.486;13.374;2022-12-07T05:49:21;3.40;98.70
3356;DHT22;1691;52.486;13.374;2022-12-07T05:51:48;3.50;98.70
3356;DHT22;1691;52.486;13.374;2022-12-07T05:54:15;3.50;98.70
3356;DHT22;1691;52.486;13.374;2022-12-07T05:56:42;3.60;98.70
3356;DHT22;1691;52.486;13.374;2022-12-07T05:59:09;3.60;98.70
3356;DHT22;1691;52.486;13.374;2022-12-07T06:02:02;3.60;98.70
3356;DHT22;1691;52.486;13.374;2022-12-07T06:04:41;3.70;98.70
3356;DHT22;1691;52.486;13.374;2022-12-07T06:07:13;3.70;98.70
3356;DHT22;1691;52.486;13.374;2022-12-07T06:09:41;3.70;98.70
3356;DHT22;1691;52.486;13.374;2022-12-07T06:12:11;3.80;98.70
3356;DHT22;1691;52.486;13.374;2022-12-07T06:14:57;3.80;98.70
3356;DHT22;1691;52.486;13.374;2022-12-07T06:17:24;3.80;98.70
3356;DHT22;1691;52.486;13.374;2022-12-07T06:19:52;3.90;98.70
3356;DHT22;1691;52.486;13.374;2022-12-07T06:22:19;3.90;98.70
3356;DHT22;1691;52.486;13.374;2022-12-07T06:24:46;3.90;98.70
3356;DHT22;1691;52.486;13.374;2022-12-07T06:27:13;3.90;98.70
3356;DHT22;1691;52.486;13.374;2022-12-07T06:29:40;3.90;98.70
3356;DHT22;1691;52.486;13.374;2022-12-07T06:32:07;3.90;98.70
3356;DHT22;1691;52.486;13.374;2022-12-07T06:34:34;3.90;98.70
3356;DHT22;1691;52.486;13.374;2022-12-07T06:37:02;3.90;98.70
3356;DHT22;1691;52.486;13.374;2022-12-07T06:39:29;3.90;98.70
3356;DHT22;1691;52.486;13.374;2022-12-07T06:41:57;3.90;98.70
3356;DHT22;1691;52.486;13.374;2022-12-07T06:44:24;3.90;98.70
3356;DHT22;1691;52.486;13.374;2022-12-07T06:46:52;3.90;98.70
3356;DHT22;1691;52.486;13.374;2022-12-07T06:49:39;3.90;98.70
3356;DHT22;1691;52.486;13.374;2022-12-07T06:52:06;4.00;98.70
3356;DHT22;1691;52.486;13.374;2022-12-07T06:54:33;4.00;98.70
3356;DHT22;1691;52.486;13.374;2022-12-07T06:57:00;4.10;98.70
3356;DHT22;1691;52.486;13.374;2022-12-07T06:59:27;4.10;98.70
3356;DHT22;1691;52.486;13.374;2022-12-07T07:01:54;4.20;98.70
3356;DHT22;1691;52.486;13.374;2022-12-07T07:04:21;4.20;98.70
3356;DHT22;1691;52.486;13.374;2022-12-07T07:06:48;4.30;98.70
3356;DHT22;1691;52.486;13.374;2022-12-07T07:09:22;4.30;98.70
3356;DHT22;1691;52.486;13.374;2022-12-07T07:11:49;4.30;98.70
3356;DHT22;1691;52.486;13.374;2022-12-07T07:14:16;4.40;98.70
3356;DHT22;1691;52.486;13.374;2022-12-07T07:16:45;4.40;98.70
3356;DHT22;1691;52.486;13.374;2022-12-07T07:19:12;4.40;98.70
3356;DHT22;1691;52.486;13.374;2022-12-07T07:21:39;4.40;98.70
3356;DHT22;1691;52.486;13.374;2022-12-07T07:24:06;4.50;98.70
3356;DHT22;1691;52.486;13.374;2022-12-07T07:26:34;4.50;98.70
3356;DHT22;1691;52.486;13.374;2022-12-07T07:29:01;4.50;98.70
3356;DHT22;1691;52.486;13.374;2022-12-07T07:31:28;4.50;98.70
3356;DHT22;1691;52.486;13.374;2022-12-07T07:33:55;4.60;98.70
3356;DHT22;1691;52.486;13.374;2022-12-07T07:36:22;4.60;98.70
3356;DHT22;1691;52.486;13.374;2022-12-07T07:38:49;4.60;98.70
3356;DHT22;1691;52.486;13.374;2022-12-07T07:41:16;4.60;98.70
3356;DHT22;1691;52.486;13.374;2022-12-07T07:43:43;4.60;98.70
3356;DHT22;1691;52.486;13.374;2022-12-07T07:46:10;4.50;98.70
3356;DHT22;1691;52.486;13.374;2022-12-07T07:48:37;4.50;98.70
3356;DHT22;1691;52.486;13.374;2022-12-07T07:51:07;4.40;98.70
3356;DHT22;1691;52.486;13.374;2022-12-07T07:53:34;4.40;98.70
3356;DHT22;1691;52.486;13.374;2022-12-07T07:56:02;4.40;98.70
3356;DHT22;1691;52.486;13.374;2022-12-07T07:58:29;4.50;98.70
3356;DHT22;1691;52.486;13.374;2022-12-07T08:00:56;4.60;98.70
3356;DHT22;1691;52.486;13.374;2022-12-07T08:03:23;4.70;98.70
3356;DHT22;1691;52.486;13.374;2022-12-07T08:05:50;4.80;98.70
3356;DHT22;1691;52.486;13.374;2022-12-07T08:08:17;5.10;98.70
3356;DHT22;1691;52.486;13.374;2022-12-07T08:10:44;5.20;98.70
3356;DHT22;1691;52.486;13.374;2022-12-07T08:13:11;5.20;98.70
3356;DHT22;1691;52.486;13.374;2022-12-07T08:15:45;5.20;98.70
3356;DHT22;1691;52.486;13.374;2022-12-07T08:18:14;5.10;98.70
3356;DHT22;1691;52.486;13.374;2022-12-07T08:20:42;5.10;98.70
3356;DHT22;1691;52.486;13.374;2022-12-07T08:23:10;5.00;98.70
3356;DHT22;1691;52.486;13.374;2022-12-07T08:25:37;5.00;98.70
3356;DHT22;1691;52.486;13.374;2022-12-07T08:28:05;5.00;98.70
3356;DHT22;1691;52.486;13.374;2022-12-07T08:30:33;5.00;98.70
3356;DHT22;1691;52.486;13.374;2022-12-07T08:33:00;5.00;98.70
3356;DHT22;1691;52.486;13.374;2022-12-07T08:35:27;5.00;98.70
3356;DHT22;1691;52.486;13.374;2022-12-07T08:37:54;4.90;98.70
3356;DHT22;1691;52.486;13.374;2022-12-07T08:40:24;4.90;98.70
3356;DHT22;1691;52.486;13.374;2022-12-07T08:42:51;4.90;98.70
3356;DHT22;1691;52.486;13.374;2022-12-07T08:45:19;4.90;98.70
3356;DHT22;1691;52.486;13.374;2022-12-07T08:48:00;4.90;98.70
3356;DHT22;1691;52.486;13.374;2022-12-07T08:50:29;4.90;98.70
3356;DHT22;1691;52.486;13.374;2022-12-07T08:52:59;4.90;98.70
3356;DHT22;1691;52.486;13.374;2022-12-07T08:55:27;4.90;98.70
3356;DHT22;1691;52.486;13.374;2022-12-07T08:57:57;4.90;98.70
3356;DHT22;1691;52.486;13.374;2022-12-07T09:00:26;4.90;98.70
3356;DHT22;1691;52.486;13.374;2022-12-07T09:02:53;4.90;98.70
3356;DHT22;1691;52.486;13.374;2022-12-07T09:05:21;4.90;98.70
3356;DHT22;1691;52.486;13.374;2022-12-07T09:07:51;4.90;98.70
3356;DHT22;1691;52.486;13.374;2022-12-07T09:10:22;4.90;98.70
3356;DHT22;1691;52.486;13.374;2022-12-07T09:12:50;4.90;98.70
3356;DHT22;1691;52.486;13.374;2022-12-07T09:15:17;4.90;98.70
3356;DHT22;1691;52.486;13.374;2022-12-07T09:17:44;4.90;98.70
3356;DHT22;1691;52.486;13.374;2022-12-07T09:20:11;4.90;98.70
3356;DHT22;1691;52.486;13.374;2022-12-07T09:22:39;4.80;98.70
3356;DHT22;1691;52.486;13.374;2022-12-07T09:25:06;4.80;98.70
3356;DHT22;1691;52.486;13.374;2022-12-07T09:27:33;4.80;98.70
3356;DHT22;1691;52.486;13.374;2022-12-07T09:30:00;4.80;98.70
3356;DHT22;1691;52.486;13.374;2022-12-07T09:32:29;4.80;98.70
3356;DHT22;1691;52.486;13.374;2022-12-07T09:34:56;4.90;98.70
3356;DHT22;1691;52.486;13.374;2022-12-07T09:37:23;4.90;98.70
3356;DHT22;1691;52.486;13.374;2022-12-07T09:39:50;5.00;98.70
3356;DHT22;1691;52.486;13.374;2022-12-07T09:42:29;5.00;98.70
3356;DHT22;1691;52.486;13.374;2022-12-07T09:45:01;5.00;98.70
3356;DHT22;1691;52.486;13.374;2022-12-07T09:47:30;4.90;98.70
3356;DHT22;1691;52.486;13.374;2022-12-07T09:50:12;4.90;98.70
3356;DHT22;1691;52.486;13.374;2022-12-07T09:52:45;4.90;98.70
3356;DHT22;1691;52.486;13.374;2022-12-07T09:55:15;4.90;98.70
3356;DHT22;1691;52.486;13.374;2022-12-07T09:57:46;4.80;98.70
3356;DHT22;1691;52.486;13.374;2022-12-07T10:05:26;4.80;98.70
3356;DHT22;1691;52.486;13.374;2022-12-07T10:07:55;4.80;98.70
3356;DHT22;1691;52.486;13.374;2022-12-07T10:10:27;4.90;98.70
3356;DHT22;1691;52.486;13.374;2022-12-07T10:13:15;4.90;98.70
3356;DHT22;1691;52.486;13.374;2022-12-07T10:15:56;4.90;98.70
3356;DHT22;1691;52.486;13.374;2022-12-07T10:18:37;4.90;98.70
3356;DHT22;1691;52.486;13.374;2022-12-07T10:21:14;4.90;98.70
3356;DHT22;1691;52.486;13.374;2022-12-07T10:24:00;4.90;98.70
3356;DHT22;1691;52.486;13.374;2022-12-07T10:34:36;5.00;98.70
3356;DHT22;1691;52.486;13.374;2022-12-07T10:42:21;5.00;98.70
3356;DHT22;1691;52.486;13.374;2022-12-07T10:45:36;4.90;98.70
3356;DHT22;1691;52.486;13.374;2022-12-07T10:47:51;4.90;98.70
3356;DHT22;1691;52.486;13.374;2022-12-07T10:53:22;5.00;98.70
3356;DHT22;1691;52.486;13.374;2022-12-07T11:01:40;5.00;98.70
3356;DHT22;1691;52.486;13.374;2022-12-07T11:13:22;5.20;98.70
3356;DHT22;1691;52.486;13.374;2022-12-07T11:22:05;5.30;98.70
3356;DHT22;1691;52.486;13.374;2022-12-07T11:30:24;5.50;98.70
3356;DHT22;1691;52.486;13.374;2022-12-07T11:33:09;5.50;98.70
3356;DHT22;1691;52.486;13.374;2022-12-07T11:38:53;5.50;98.70
3356;DHT22;1691;52.486;13.374;2022-12-07T11:41:40;5.60;98.70
3356;DHT22;1691;52.486;13.374;2022-12-07T11:47:13;5.60;98.70
3356;DHT22;1691;52.486;13.374;2022-12-07T11:55:54;5.60;98.70
3356;DHT22;1691;52.486;13.374;2022-12-07T11:58:48;5.70;98.70
3356;DHT22;1691;52.486;13.374;2022-12-07T12:06:39;5.70;98.70
3356;DHT22;1691;52.486;13.374;2022-12-07T12:09:17;5.70;98.70
3356;DHT22;1691;52.486;13.374;2022-12-07T12:12:25;5.70;98.70
3356;DHT22;1691;52.486;13.374;2022-12-07T12:15:38;5.80;98.70
3356;DHT22;1691;52.486;13.374;2022-12-07T12:21:10;5.70;98.70
3356;DHT22;1691;52.486;13.374;2022-12-07T12:24:04;5.80;98.70
3356;DHT22;1691;52.486;13.374;2022-12-07T12:26:38;5.80;98.70
3356;DHT22;1691;52.486;13.374;2022-12-07T12:29:39;5.80;98.70
3356;DHT22;1691;52.486;13.374;2022-12-07T12:37:52;5.80;98.70
3356;DHT22;1691;52.486;13.374;2022-12-07T12:42:51;5.80;98.70
3356;DHT22;1691;52.486;13.374;2022-12-07T12:45:30;5.80;98.70
3356;DHT22;1691;52.486;13.374;2022-12-07T12:48:00;5.80;98.70
3356;DHT22;1691;52.486;13.374;2022-12-07T12:50:29;5.80;98.70
3356;DHT22;1691;52.486;13.374;2022-12-07T12:53:11;5.80;98.70
3356;DHT22;1691;52.486;13.374;2022-12-07T12:56:14;5.80;98.70
3356;DHT22;1691;52.486;13.374;2022-12-07T13:00:14;5.70;98.70
3356;DHT22;1691;52.486;13.374;2022-12-07T13:02:58;5.70;98.70
3356;DHT22;1691;52.486;13.374;2022-12-07T13:05:28;5.70;98.70
3356;DHT22;1691;52.486;13.374;2022-12-07T13:10:48;5.70;98.70
3356;DHT22;1691;52.486;13.374;2022-12-07T13:29:16;5.80;98.70
3356;DHT22;1691;52.486;13.374;2022-12-07T13:31:51;5.80;98.70
3356;DHT22;1691;52.486;13.374;2022-12-07T13:34:39;5.80;98.70
3356;DHT22;1691;52.486;13.374;2022-12-07T13:42:32;5.70;98.70
3356;DHT22;1691;52.486;13.374;2022-12-07T13:45:17;5.80;98.70
3356;DHT22;1691;52.486;13.374;2022-12-07T13:48:41;5.70;98.70
3356;DHT22;1691;52.486;13.374;2022-12-07T13:51:20;5.70;98.70
3356;DHT22;1691;52.486;13.374;2022-12-07T13:54:01;5.60;98.70
3356;DHT22;1691;52.486;13.374;2022-12-07T13:56:35;5.60;98.70
3356;DHT22;1691;52.486;13.374;2022-12-07T13:59:04;5.60;98.70
3356;DHT22;1691;52.486;13.374;2022-12-07T14:01:34;5.50;98.70
3356;DHT22;1691;52.486;13.374;2022-12-07T14:04:30;5.50;98.70
3356;DHT22;1691;52.486;13.374;2022-12-07T14:07:23;5.50;98.70
3356;DHT22;1691;52.486;13.374;2022-12-07T14:09:59;5.50;98.70
3356;DHT22;1691;52.486;13.374;2022-12-07T14:12:29;5.50;98.70
3356;DHT22;1691;52.486;13.374;2022-12-07T14:14:59;5.50;98.70
3356;DHT22;1691;52.486;13.374;2022-12-07T14:17:27;5.50;98.70
3356;DHT22;1691;52.486;13.374;2022-12-07T14:22:30;5.40;98.70
3356;DHT22;1691;52.486;13.374;2022-12-07T14:25:18;5.40;98.70
3356;DHT22;1691;52.486;13.374;2022-12-07T14:27:59;5.40;98.70
3356;DHT22;1691;52.486;13.374;2022-12-07T14:30:30;5.40;98.70
3356;DHT22;1691;52.486;13.374;2022-12-07T14:33:00;5.50;98.70
3356;DHT22;1691;52.486;13.374;2022-12-07T14:35:30;5.60;98.70
3356;DHT22;1691;52.486;13.374;2022-12-07T14:37:58;5.60;98.70
3356;DHT22;1691;52.486;13.374;2022-12-07T14:40:29;5.60;98.70
3356;DHT22;1691;52.486;13.374;2022-12-07T14:43:00;5.50;98.70
3356;DHT22;1691;52.486;13.374;2022-12-07T14:45:29;5.40;98.70
3356;DHT22;1691;52.486;13.374;2022-12-07T14:47:56;5.30;98.70
3356;DHT22;1691;52.486;13.374;2022-12-07T14:50:52;5.20;98.70
3356;DHT22;1691;52.486;13.374;2022-12-07T14:53:44;5.10;98.70
3356;DHT22;1691;52.486;13.374;2022-12-07T14:56:23;5.00;98.70
3356;DHT22;1691;52.486;13.374;2022-12-07T14:58:51;4.90;98.70
3356;DHT22;1691;52.486;13.374;2022-12-07T15:01:18;4.80;98.70
3356;DHT22;1691;52.486;13.374;2022-12-07T15:03:45;4.70;98.70
3356;DHT22;1691;52.486;13.374;2022-12-07T15:06:17;4.60;98.70
3356;DHT22;1691;52.486;13.374;2022-12-07T15:08:45;4.60;98.70
3356;DHT22;1691;52.486;13.374;2022-12-07T15:11:14;4.50;98.70
3356;DHT22;1691;52.486;13.374;2022-12-07T15:13:42;4.50;98.70
3356;DHT22;1691;52.486;13.374;2022-12-07T15:16:28;4.50;98.70
3356;DHT22;1691;52.486;13.374;2022-12-07T15:19:24;4.40;98.70
3356;DHT22;1691;52.486;13.374;2022-12-07T15:21:55;4.30;98.70
3356;DHT22;1691;52.486;13.374;2022-12-07T15:24:23;4.30;98.70
3356;DHT22;1691;52.486;13.374;2022-12-07T15:26:51;4.20;98.70
3356;DHT22;1691;52.486;13.374;2022-12-07T15:29:18;4.20;98.70
3356;DHT22;1691;52.486;13.374;2022-12-07T15:31:52;4.10;98.70
3356;DHT22;1691;52.486;13.374;2022-12-07T15:34:24;4.10;98.70
3356;DHT22;1691;52.486;13.374;2022-12-07T15:36:52;4.10;98.70
3356;DHT22;1691;52.486;13.374;2022-12-07T15:39:19;4.20;98.70
3356;DHT22;1691;52.486;13.374;2022-12-07T15:41:46;4.20;98.70
3356;DHT22;1691;52.486;13.374;2022-12-07T15:44:13;4.30;98.70
3356;DHT22;1691;52.486;13.374;2022-12-07T15:47:00;4.30;98.70
3356;DHT22;1691;52.486;13.374;2022-12-07T15:49:27;4.40;98.70
3356;DHT22;1691;52.486;13.374;2022-12-07T15:51:54;4.40;98.70
3356;DHT22;1691;52.486;13.374;2022-12-07T15:54:27;4.40;98.70
3356;DHT22;1691;52.486;13.374;2022-12-07T15:56:55;4.40;98.70
3356;DHT22;1691;52.486;13.374;2022-12-07T15:59:23;4.40;98.70
3356;DHT22;1691;52.486;13.374;2022-12-07T16:01:50;4.30;98.70
3356;DHT22;1691;52.486;13.374;2022-12-07T16:04:18;4.40;98.70
3356;DHT22;1691;52.486;13.374;2022-12-07T16:06:45;4.40;98.70
3356;DHT22;1691;52.486;13.374;2022-12-07T16:09:12;4.40;98.70
3356;DHT22;1691;52.486;13.374;2022-12-07T16:11:39;4.30;98.70
3356;DHT22;1691;52.486;13.374;2022-12-07T16:14:06;4.30;98.70
3356;DHT22;1691;52.486;13.374;2022-12-07T16:16:33;4.20;98.70
3356;DHT22;1691;52.486;13.374;2022-12-07T16:19:00;4.20;98.70
3356;DHT22;1691;52.486;13.374;2022-12-07T16:21:27;4.10;98.70
3356;DHT22;1691;52.486;13.374;2022-12-07T16:23:57;4.10;98.70
3356;DHT22;1691;52.486;13.374;2022-12-07T16:26:25;4.00;98.70
3356;DHT22;1691;52.486;13.374;2022-12-07T16:28:53;3.90;98.70
3356;DHT22;1691;52.486;13.374;2022-12-07T16:31:24;3.90;98.70
3356;DHT22;1691;52.486;13.374;2022-12-07T16:33:55;3.90;98.70
3356;DHT22;1691;52.486;13.374;2022-12-07T16:36:24;3.80;98.70
3356;DHT22;1691;52.486;13.374;2022-12-07T16:39:13;3.80;98.70
3356;DHT22;1691;52.486;13.374;2022-12-07T16:41:41;3.80;98.70
3356;DHT22;1691;52.486;13.374;2022-12-07T16:44:10;3.70;98.70
3356;DHT22;1691;52.486;13.374;2022-12-07T16:46:39;3.70;98.70
3356;DHT22;1691;52.486;13.374;2022-12-07T16:49:13;3.70;98.70
3356;DHT22;1691;52.486;13.374;2022-12-07T16:51:41;3.70;98.70
3356;DHT22;1691;52.486;13.374;2022-12-07T16:54:10;3.60;98.70
3356;DHT22;1691;52.486;13.374;2022-12-07T16:56:38;3.60;98.70
3356;DHT22;1691;52.486;13.374;2022-12-07T16:59:06;3.60;98.70
3356;DHT22;1691;52.486;13.374;2022-12-07T17:01:33;3.60;98.70
3356;DHT22;1691;52.486;13.374;2022-12-07T17:04:01;3.60;98.70
3356;DHT22;1691;52.486;13.374;2022-12-07T17:06:29;3.50;98.70
3356;DHT22;1691;52.486;13.374;2022-12-07T17:08:57;3.50;98.70
3356;DHT22;1691;52.486;13.374;2022-12-07T17:11:27;3.40;98.70
3356;DHT22;1691;52.486;13.374;2022-12-07T17:13:55;3.40;98.70
3356;DHT22;1691;52.486;13.374;2022-12-07T17:16:41;3.40;98.70
3356;DHT22;1691;52.486;13.374;2022-12-07T17:19:11;3.40;98.70
3356;DHT22;1691;52.486;13.374;2022-12-07T17:21:40;3.30;98.70
3356;DHT22;1691;52.486;13.374;2022-12-07T17:24:10;3.30;98.70
3356;DHT22;1691;52.486;13.374;2022-12-07T17:26:40;3.30;98.70
3356;DHT22;1691;52.486;13.374;2022-12-07T17:29:11;3.30;98.70
3356;DHT22;1691;52.486;13.374;2022-12-07T17:31:39;3.30;98.70
3356;DHT22;1691;52.486;13.374;2022-12-07T17:34:12;3.20;98.70
3356;DHT22;1691;52.486;13.374;2022-12-07T17:36:41;3.20;98.70
3356;DHT22;1691;52.486;13.374;2022-12-07T17:39:09;3.20;98.70
3356;DHT22;1691;52.486;13.374;2022-12-07T17:41:38;3.20;98.70
3356;DHT22;1691;52.486;13.374;2022-12-07T17:44:23;3.10;98.70
3356;DHT22;1691;52.486;13.374;2022-12-07T17:46:52;3.10;98.70
3356;DHT22;1691;52.486;13.374;2022-12-07T17:49:21;3.10;98.70
3356;DHT22;1691;52.486;13.374;2022-12-07T17:51:48;3.10;98.70
3356;DHT22;1691;52.486;13.374;2022-12-07T17:54:34;3.00;98.70
3356;DHT22;1691;52.486;13.374;2022-12-07T17:57:01;3.00;98.70
3356;DHT22;1691;52.486;13.374;2022-12-07T17:59:28;3.00;98.70
3356;DHT22;1691;52.486;13.374;2022-12-07T18:01:55;3.00;98.70
3356;DHT22;1691;52.486;13.374;2022-12-07T18:04:23;2.90;98.70
3356;DHT22;1691;52.486;13.374;2022-12-07T18:06:50;2.90;98.70
3356;DHT22;1691;52.486;13.374;2022-12-07T18:09:18;2.90;98.70
3356;DHT22;1691;52.486;13.374;2022-12-07T18:11:47;2.90;98.70
3356;DHT22;1691;52.486;13.374;2022-12-07T18:14:14;2.90;98.70
3356;DHT22;1691;52.486;13.374;2022-12-07T18:16:42;2.80;98.70
3356;DHT22;1691;52.486;13.374;2022-12-07T18:19:10;2.80;98.70
3356;DHT22;1691;52.486;13.374;2022-12-07T18:21:40;2.80;98.70
3356;DHT22;1691;52.486;13.374;2022-12-07T18:24:09;2.70;98.70
3356;DHT22;1691;52.486;13.374;2022-12-07T18:26:38;2.70;98.70
3356;DHT22;1691;52.486;13.374;2022-12-07T18:29:07;2.70;98.70
3356;DHT22;1691;52.486;13.374;2022-12-07T18:35:40;2.60;98.70
3356;DHT22;1691;52.486;13.374;2022-12-07T18:38:11;2.60;98.70
3356;DHT22;1691;52.486;13.374;2022-12-07T18:40:49;2.50;98.70
3356;DHT22;1691;52.486;13.374;2022-12-07T18:43:45;2.50;98.70
3356;DHT22;1691;52.486;13.374;2022-12-07T18:46:25;2.50;98.70
3356;DHT22;1691;52.486;13.374;2022-12-07T18:49:12;2.50;98.70
3356;DHT22;1691;52.486;13.374;2022-12-07T18:51:46;2.40;98.70
3356;DHT22;1691;52.486;13.374;2022-12-07T18:54:26;2.40;98.70